createdAt,value
2022-08-17T00:00:34.413Z,5.10
2022-08-17T00:03:15.095Z,5.07
2022-08-17T00:05:49.062Z,5.03
2022-08-17T00:08:20.781Z,5.18
2022-08-17T00:10:49.658Z,5.03
2022-08-17T00:13:20.870Z,4.83
2022-08-17T00:15:49.450Z,4.88
2022-08-17T00:18:53.778Z,4.32
2022-08-17T00:21:10.396Z,5.27
2022-08-17T00:23:44.375Z,4.93
2022-08-17T00:26:44.363Z,5.10
2022-08-17T00:29:07.729Z,4.67
2022-08-17T00:31:38.021Z,5.40
2022-08-17T00:34:10.090Z,4.73
2022-08-17T00:36:39.358Z,4.65
2022-08-17T00:39:07.571Z,4.67
2022-08-17T00:41:36.876Z,5.13
2022-08-17T00:44:12.286Z,5.00
2022-08-17T00:46:43.011Z,5.17
2022-08-17T00:49:14.056Z,5.23
2022-08-17T00:51:47.476Z,4.82
2022-08-17T00:54:23.811Z,4.97
2022-08-17T00:56:58.040Z,5.40
2022-08-17T00:59:30.918Z,5.43
2022-08-17T01:01:59.947Z,5.20
2022-08-17T01:04:31.466Z,5.20
2022-08-17T01:07:05.403Z,5.00
2022-08-17T01:09:34.085Z,4.95
2022-08-17T01:12:02.230Z,5.03
2022-08-17T01:14:31.573Z,5.43
2022-08-17T01:17:00.730Z,5.07
2022-08-17T01:19:34.264Z,5.82
2022-08-17T01:22:07.821Z,5.27
2022-08-17T01:24:39.490Z,5.28
2022-08-17T01:27:10.432Z,5.43
2022-08-17T01:29:44.333Z,4.85
2022-08-17T01:32:12.990Z,5.13
2022-08-17T01:34:43.562Z,5.25
2022-08-17T01:37:20.614Z,5.20
2022-08-17T01:39:53.712Z,5.03
2022-08-17T01:42:25.629Z,4.83
2022-08-17T01:44:58.981Z,4.60
2022-08-17T01:47:27.443Z,4.88
2022-08-17T01:49:58.160Z,5.27
2022-08-17T01:52:27.392Z,4.63
2022-08-17T01:54:57.471Z,5.10
2022-08-17T01:57:25.990Z,4.70
2022-08-17T01:59:54.438Z,5.27
2022-08-17T02:02:30.945Z,5.43
2022-08-17T02:05:01.727Z,4.97
2022-08-17T02:07:30.318Z,5.13
2022-08-17T02:10:00.376Z,4.80
2022-08-17T02:12:39.535Z,5.05
2022-08-17T02:15:17.162Z,5.40
2022-08-17T02:17:45.815Z,5.18
2022-08-17T02:20:14.439Z,4.63
2022-08-17T02:22:46.118Z,5.60
2022-08-17T02:25:19.283Z,4.95
2022-08-17T02:27:48.789Z,5.05
2022-08-17T02:31:00.912Z,4.97
2022-08-17T02:33:09.406Z,6.00
2022-08-17T02:35:39.919Z,5.13
2022-08-17T02:38:08.809Z,6.03
2022-08-17T02:40:40.570Z,5.70
2022-08-17T02:43:10.877Z,5.60
2022-08-17T02:45:39.669Z,5.70
2022-08-17T02:48:07.907Z,5.57
2022-08-17T02:50:36.279Z,6.03
2022-08-17T02:53:05.478Z,6.30
2022-08-17T02:55:36.626Z,5.60
2022-08-17T02:58:06.474Z,5.95
2022-08-17T03:00:38.174Z,5.78
2022-08-17T03:03:07.582Z,5.90
2022-08-17T03:05:38.424Z,5.80
2022-08-17T03:08:11.726Z,5.72
2022-08-17T03:10:42.243Z,6.32
2022-08-17T03:13:12.756Z,6.20
2022-08-17T03:15:41.550Z,6.85
2022-08-17T03:18:24.158Z,6.25
2022-08-17T03:20:53.937Z,5.60
2022-08-17T03:23:24.156Z,5.70
2022-08-17T03:25:54.071Z,5.60
2022-08-17T03:28:24.582Z,5.85
2022-08-17T03:30:53.247Z,6.05
2022-08-17T03:33:22.010Z,5.13
2022-08-17T03:35:50.254Z,5.40
2022-08-17T03:38:19.006Z,5.28
2022-08-17T03:40:57.381Z,5.50
2022-08-17T03:43:31.683Z,5.80
2022-08-17T03:46:28.144Z,6.10
2022-08-17T03:49:24.518Z,5.47
2022-08-17T03:52:10.214Z,5.70
2022-08-17T03:54:56.293Z,5.72
2022-08-17T03:57:25.852Z,5.35
2022-08-17T03:59:55.847Z,5.82
2022-08-17T04:02:26.830Z,5.57
2022-08-17T04:04:55.055Z,5.40
2022-08-17T04:07:25.853Z,5.65
2022-08-17T04:09:54.860Z,5.53
2022-08-17T04:12:25.581Z,5.60
2022-08-17T04:14:55.490Z,5.70
2022-08-17T04:17:25.662Z,5.55
2022-08-17T04:19:54.803Z,5.87
2022-08-17T04:22:32.537Z,5.25
2022-08-17T04:25:04.611Z,5.88
2022-08-17T04:27:35.053Z,5.45
2022-08-17T04:30:08.047Z,5.95
2022-08-17T04:33:04.430Z,6.07
2022-08-17T04:35:37.899Z,5.73
2022-08-17T04:38:06.254Z,6.07
2022-08-17T04:40:52.731Z,6.07
2022-08-17T04:43:25.921Z,5.97
2022-08-17T04:45:57.931Z,6.10
2022-08-17T04:48:35.557Z,5.43
2022-08-17T04:51:09.791Z,5.27
2022-08-17T04:53:39.093Z,5.43
2022-08-17T04:56:07.965Z,4.93
2022-08-17T04:58:44.402Z,5.60
2022-08-17T05:01:19.052Z,6.30
2022-08-17T05:03:54.258Z,5.60
2022-08-17T05:06:23.203Z,5.83
2022-08-17T05:08:51.459Z,5.40
2022-08-17T05:11:19.784Z,5.55
2022-08-17T05:13:50.122Z,5.65
2022-08-17T05:16:21.394Z,5.65
2022-08-17T05:18:52.384Z,5.00
2022-08-17T05:21:22.261Z,5.30
2022-08-17T05:23:54.983Z,5.43
2022-08-17T05:26:26.079Z,5.18
2022-08-17T05:28:57.163Z,5.07
2022-08-17T05:31:30.246Z,6.13
2022-08-17T05:33:58.805Z,5.32
2022-08-17T05:36:37.870Z,4.82
2022-08-17T05:39:17.041Z,5.70
2022-08-17T05:41:48.197Z,5.00
2022-08-17T05:44:17.113Z,4.93
2022-08-17T05:46:51.441Z,5.00
2022-08-17T05:49:25.413Z,4.43
2022-08-17T05:52:27.535Z,4.72
2022-08-17T05:55:11.330Z,4.70
2022-08-17T05:57:53.375Z,5.10
2022-08-17T06:00:30.883Z,4.82
2022-08-17T06:03:25.756Z,5.25
2022-08-17T06:06:07.183Z,4.68
2022-08-17T06:08:45.758Z,4.95
2022-08-17T06:11:23.645Z,4.55
2022-08-17T06:14:11.792Z,4.60
2022-08-17T06:16:44.353Z,4.32
2022-08-17T06:19:19.061Z,4.10
2022-08-17T06:21:52.387Z,4.55
2022-08-17T06:24:40.507Z,4.10
2022-08-17T06:27:14.713Z,4.30
2022-08-17T06:29:51.286Z,4.93
2022-08-17T06:32:19.581Z,4.70
2022-08-17T06:34:49.507Z,4.47
2022-08-17T06:37:31.981Z,4.57
2022-08-17T06:40:15.703Z,4.22
2022-08-17T06:43:05.860Z,4.10
2022-08-17T06:45:38.157Z,3.90
2022-08-17T06:48:14.130Z,4.22
2022-08-17T06:50:50.302Z,4.20
2022-08-17T06:53:24.549Z,3.85
2022-08-17T06:56:06.089Z,4.05
2022-08-17T06:58:35.845Z,4.65
2022-08-17T07:01:16.638Z,4.43
2022-08-17T07:03:54.609Z,3.78
2022-08-17T07:06:27.728Z,4.38
2022-08-17T07:09:02.411Z,4.07
2022-08-17T07:11:35.350Z,4.10
2022-08-17T07:14:19.483Z,4.57
2022-08-17T07:16:50.422Z,4.45
2022-08-17T07:19:23.317Z,4.15
2022-08-17T07:21:58.473Z,4.05
2022-08-17T07:24:37.341Z,4.50
2022-08-17T07:27:13.741Z,3.95
2022-08-17T07:29:46.410Z,4.10
2022-08-17T07:32:19.303Z,4.28
2022-08-17T07:35:22.210Z,3.85
2022-08-17T07:37:54.451Z,4.00
2022-08-17T07:40:27.686Z,4.35
2022-08-17T07:43:04.925Z,3.90
2022-08-17T07:45:52.432Z,3.50
2022-08-17T07:48:24.344Z,3.90
2022-08-17T07:50:53.238Z,4.07
2022-08-17T07:53:27.405Z,3.35
2022-08-17T07:55:56.039Z,3.80
2022-08-17T07:58:26.525Z,3.60
2022-08-17T08:01:09.816Z,3.95
2022-08-17T08:03:43.430Z,3.92
2022-08-17T08:06:22.417Z,3.65
2022-08-17T08:08:55.892Z,3.45
2022-08-17T08:11:33.830Z,3.63
2022-08-17T08:14:28.539Z,4.35
2022-08-17T08:17:00.215Z,3.50
2022-08-17T08:19:29.592Z,6.18
2022-08-17T08:22:05.573Z,4.88
2022-08-17T08:25:00.333Z,3.90
2022-08-17T08:27:38.623Z,3.65
2022-08-17T08:30:10.646Z,4.20
2022-08-17T08:32:57.534Z,3.67
2022-08-17T08:35:33.041Z,3.28
2022-08-17T08:38:09.937Z,3.50
2022-08-17T08:40:50.692Z,4.00
2022-08-17T08:43:28.165Z,4.18
2022-08-17T08:46:05.872Z,3.47
2022-08-17T08:49:12.653Z,2.92
2022-08-17T08:51:53.179Z,3.63
2022-08-17T08:54:34.402Z,3.55
2022-08-17T08:57:26.910Z,4.00
2022-08-17T09:00:12.581Z,3.75
2022-08-17T09:03:07.345Z,3.38
2022-08-17T09:05:52.803Z,3.80
2022-08-17T09:08:31.791Z,3.58
2022-08-17T09:11:06.228Z,3.50
2022-08-17T09:13:45.120Z,3.55
2022-08-17T09:16:17.211Z,3.80
2022-08-17T09:19:03.327Z,4.00
2022-08-17T09:21:47.930Z,3.40
2022-08-17T09:24:25.099Z,4.10
2022-08-17T09:26:58.928Z,3.88
2022-08-17T09:29:35.138Z,3.88
2022-08-17T09:32:06.401Z,3.40
2022-08-17T09:34:39.644Z,3.58
2022-08-17T09:37:21.755Z,3.53
2022-08-17T09:40:00.313Z,3.45
2022-08-17T09:42:33.240Z,3.30
2022-08-17T09:45:17.223Z,3.28
2022-08-17T09:47:51.298Z,3.83
2022-08-17T09:51:03.462Z,3.55
2022-08-17T09:53:16.600Z,3.35
2022-08-17T09:56:01.084Z,3.53
2022-08-17T09:58:40.646Z,3.50
2022-08-17T10:01:22.721Z,3.30
2022-08-17T10:04:11.710Z,3.45
2022-08-17T10:06:51.776Z,3.55
2022-08-17T10:09:30.027Z,4.00
2022-08-17T10:12:20.344Z,3.47
2022-08-17T10:15:22.952Z,3.75
2022-08-17T10:18:08.496Z,3.65
2022-08-17T10:20:44.917Z,3.10
2022-08-17T10:23:34.414Z,3.72
2022-08-17T10:26:16.538Z,3.53
2022-08-17T10:28:58.674Z,3.22
2022-08-17T10:31:35.671Z,3.42
2022-08-17T10:34:38.866Z,3.38
2022-08-17T10:37:28.297Z,3.53
2022-08-17T10:40:19.475Z,3.40
2022-08-17T10:42:52.038Z,3.53
2022-08-17T10:45:26.206Z,3.67
2022-08-17T10:48:04.659Z,3.15
2022-08-17T10:50:58.667Z,4.10
2022-08-17T10:53:55.477Z,3.30
2022-08-17T10:56:42.477Z,3.58
2022-08-17T10:59:10.751Z,3.50
2022-08-17T11:02:12.217Z,3.70
2022-08-17T11:05:13.225Z,3.53
2022-08-17T11:07:58.908Z,3.72
2022-08-17T11:10:55.666Z,3.60
2022-08-17T11:13:37.725Z,3.55
2022-08-17T11:16:25.055Z,3.33
2022-08-17T11:19:23.208Z,3.03
2022-08-17T11:22:31.327Z,3.20
2022-08-17T11:25:16.106Z,3.20
2022-08-17T11:27:48.623Z,3.20
2022-08-17T11:30:48.650Z,3.10
2022-08-17T11:33:54.218Z,2.92
2022-08-17T11:36:49.901Z,3.10
2022-08-17T11:39:35.530Z,2.83
2022-08-17T11:42:11.809Z,3.10
2022-08-17T11:44:53.597Z,2.90
2022-08-17T11:48:08.966Z,2.80
2022-08-17T11:51:03.906Z,2.60
2022-08-17T11:54:31.690Z,2.80
2022-08-17T11:57:00.083Z,2.95
2022-08-17T12:00:08.549Z,2.58
2022-08-17T12:02:49.029Z,2.60
2022-08-17T12:05:38.633Z,2.90
2022-08-17T12:08:17.775Z,2.50
2022-08-17T12:10:59.749Z,2.80
2022-08-17T12:13:38.628Z,2.65
2022-08-17T12:16:09.342Z,2.80
2022-08-17T12:18:42.026Z,2.78
2022-08-17T12:21:28.916Z,3.13
2022-08-17T12:24:02.054Z,2.70
2022-08-17T12:26:33.716Z,2.88
2022-08-17T12:29:03.936Z,2.75
2022-08-17T12:31:37.048Z,2.60
2022-08-17T12:34:06.939Z,3.00
2022-08-17T12:36:36.383Z,2.47
2022-08-17T12:39:12.926Z,2.90
2022-08-17T12:41:45.266Z,2.92
2022-08-17T12:44:16.511Z,3.13
2022-08-17T12:46:55.408Z,2.40
2022-08-17T12:49:31.081Z,3.17
2022-08-17T12:52:09.587Z,2.50
2022-08-17T12:54:50.392Z,2.92
2022-08-17T12:57:21.727Z,2.22
2022-08-17T12:59:53.462Z,2.67
2022-08-17T13:02:31.611Z,2.65
2022-08-17T13:05:02.650Z,2.85
2022-08-17T13:07:35.136Z,2.92
2022-08-17T13:10:04.650Z,3.00
2022-08-17T13:12:36.658Z,2.40
2022-08-17T13:15:05.877Z,2.95
2022-08-17T13:17:37.479Z,2.90
2022-08-17T13:20:16.160Z,2.90
2022-08-17T13:22:45.108Z,3.08
2022-08-17T13:25:18.216Z,2.97
2022-08-17T13:27:48.942Z,3.20
2022-08-17T13:30:23.866Z,3.00
2022-08-17T13:32:53.826Z,3.00
2022-08-17T13:35:39.972Z,3.10
2022-08-17T13:38:11.210Z,2.83
2022-08-17T13:40:48.400Z,3.05
2022-08-17T13:43:44.774Z,2.97
2022-08-17T13:46:20.401Z,2.80
2022-08-17T13:48:59.753Z,2.47
2022-08-17T13:51:45.970Z,3.00
2022-08-17T13:54:27.941Z,2.90
2022-08-17T13:57:04.569Z,2.78
2022-08-17T13:59:53.643Z,2.63
2022-08-17T14:02:27.703Z,3.10
2022-08-17T14:04:58.516Z,2.80
2022-08-17T14:07:35.127Z,3.15
2022-08-17T14:10:08.181Z,2.83
2022-08-17T14:12:38.765Z,3.05
2022-08-17T14:15:07.756Z,2.90
2022-08-17T14:17:38.837Z,2.90
2022-08-17T14:20:11.789Z,3.00
2022-08-17T14:22:44.945Z,2.78
2022-08-17T14:25:18.725Z,3.17
2022-08-17T14:27:52.893Z,3.40
2022-08-17T14:30:23.982Z,2.90
2022-08-17T14:32:52.814Z,3.10
2022-08-17T14:35:23.865Z,3.13
2022-08-17T14:37:53.894Z,3.25
2022-08-17T14:40:24.674Z,3.15
2022-08-17T14:42:55.470Z,3.22
2022-08-17T14:45:29.707Z,3.45
2022-08-17T14:48:02.714Z,3.38
2022-08-17T14:50:31.737Z,3.00
2022-08-17T14:53:04.121Z,3.13
2022-08-17T14:55:32.654Z,3.78
2022-08-17T14:58:01.227Z,3.40
2022-08-17T15:00:29.573Z,3.25
2022-08-17T15:02:59.406Z,3.13
2022-08-17T15:05:31.759Z,3.95
2022-08-17T15:08:02.454Z,3.03
2022-08-17T15:10:31.638Z,3.55
2022-08-17T15:13:00.563Z,3.28
2022-08-17T15:15:29.674Z,3.55
2022-08-17T15:17:59.154Z,3.40
2022-08-17T15:20:29.822Z,3.40
2022-08-17T15:22:59.208Z,3.10
2022-08-17T15:25:32.846Z,3.30
2022-08-17T15:28:02.030Z,3.33
2022-08-17T15:30:31.187Z,3.47
2022-08-17T15:33:00.656Z,3.53
2022-08-17T15:35:31.111Z,3.78
2022-08-17T15:38:06.491Z,3.60
2022-08-17T15:40:42.940Z,3.42
2022-08-17T15:43:14.219Z,3.17
2022-08-17T15:45:42.495Z,3.30
2022-08-17T15:48:18.494Z,3.40
2022-08-17T15:50:49.436Z,3.40
2022-08-17T15:53:17.633Z,3.60
2022-08-17T15:55:47.206Z,3.42
2022-08-17T15:58:15.364Z,3.25
2022-08-17T16:00:53.424Z,3.28
2022-08-17T16:04:01.553Z,3.45
2022-08-17T16:06:30.153Z,3.40
2022-08-17T16:08:59.717Z,3.58
2022-08-17T16:11:29.242Z,3.30
2022-08-17T16:13:57.515Z,3.65
2022-08-17T16:16:26.103Z,3.80
2022-08-17T16:18:58.656Z,3.42
2022-08-17T16:21:29.577Z,3.50
2022-08-17T16:24:01.504Z,3.38
2022-08-17T16:26:33.283Z,3.75
2022-08-17T16:29:03.618Z,3.58
2022-08-17T16:31:32.318Z,3.75
2022-08-17T16:34:17.644Z,3.50
2022-08-17T16:36:55.433Z,3.67
2022-08-17T16:39:26.464Z,4.07
2022-08-17T16:41:56.582Z,3.60
2022-08-17T16:44:26.156Z,3.60
2022-08-17T16:46:54.566Z,3.95
2022-08-17T16:49:36.260Z,3.65
2022-08-17T16:52:11.061Z,4.00
2022-08-17T16:54:41.381Z,3.97
2022-08-17T16:57:12.010Z,3.88
2022-08-17T16:59:42.748Z,3.47
2022-08-17T17:02:15.626Z,3.85
2022-08-17T17:04:51.217Z,3.42
2022-08-17T17:07:45.562Z,3.33
2022-08-17T17:10:19.948Z,3.67
2022-08-17T17:13:02.556Z,3.80
2022-08-17T17:15:44.346Z,3.78
2022-08-17T17:18:15.565Z,3.88
2022-08-17T17:20:51.790Z,3.72
2022-08-17T17:23:42.670Z,3.90
2022-08-17T17:26:23.703Z,3.60
2022-08-17T17:29:04.994Z,3.63
2022-08-17T17:31:39.769Z,3.83
2022-08-17T17:34:11.755Z,3.53
2022-08-17T17:36:45.339Z,3.33
2022-08-17T17:39:16.697Z,3.47
2022-08-17T17:41:48.981Z,3.65
2022-08-17T17:44:25.118Z,3.40
2022-08-17T17:46:58.054Z,3.40
2022-08-17T17:49:32.266Z,3.60
2022-08-17T17:52:13.391Z,3.85
2022-08-17T17:54:59.061Z,3.50
2022-08-17T17:57:39.825Z,3.75
2022-08-17T18:00:14.065Z,3.20
2022-08-17T18:03:02.466Z,3.40
2022-08-17T18:06:08.175Z,3.58
2022-08-17T18:08:52.887Z,3.80
2022-08-17T18:11:50.757Z,3.83
2022-08-17T18:14:34.799Z,4.10
2022-08-17T18:17:07.108Z,3.47
2022-08-17T18:19:38.840Z,3.90
2022-08-17T18:22:14.583Z,4.65
2022-08-17T18:24:45.741Z,3.70
2022-08-17T18:27:28.967Z,3.90
2022-08-17T18:29:59.067Z,4.40
2022-08-17T18:32:32.511Z,4.60
2022-08-17T18:35:27.730Z,3.78
2022-08-17T18:37:58.027Z,4.03
2022-08-17T18:40:30.903Z,4.03
2022-08-17T18:43:06.577Z,3.67
2022-08-17T18:45:42.279Z,3.95
2022-08-17T18:48:32.875Z,3.88
2022-08-17T18:51:06.228Z,3.97
2022-08-17T18:53:40.876Z,3.83
2022-08-17T18:56:26.282Z,3.47
2022-08-17T18:59:14.246Z,3.95
2022-08-17T19:01:53.327Z,3.78
2022-08-17T19:04:37.279Z,3.70
2022-08-17T19:07:28.542Z,3.53
2022-08-17T19:10:03.832Z,3.65
2022-08-17T19:12:39.012Z,3.78
2022-08-17T19:15:11.101Z,3.83
2022-08-17T19:17:49.564Z,3.10
2022-08-17T19:20:23.902Z,3.85
2022-08-17T19:23:01.662Z,4.03
2022-08-17T19:25:33.146Z,3.50
2022-08-17T19:28:15.385Z,3.30
2022-08-17T19:30:55.747Z,3.85
2022-08-17T19:33:24.232Z,3.90
2022-08-17T19:36:02.025Z,3.60
2022-08-17T19:38:41.289Z,3.97
2022-08-17T19:41:17.977Z,3.55
2022-08-17T19:44:11.648Z,3.55
2022-08-17T19:46:50.080Z,4.10
2022-08-17T19:49:41.251Z,3.70
2022-08-17T19:52:37.444Z,3.78
2022-08-17T19:55:10.526Z,3.83
2022-08-17T19:57:47.476Z,3.70
2022-08-17T20:00:19.285Z,3.47
2022-08-17T20:02:58.920Z,3.67
2022-08-17T20:05:30.226Z,3.55
2022-08-17T20:08:05.760Z,4.38
2022-08-17T20:10:45.206Z,4.03
2022-08-17T20:13:32.833Z,4.18
2022-08-17T20:16:03.892Z,3.83
2022-08-17T20:18:38.066Z,3.90
2022-08-17T20:21:19.810Z,3.92
2022-08-17T20:23:54.780Z,4.10
2022-08-17T20:26:27.536Z,3.90
2022-08-17T20:29:41.680Z,3.70
2022-08-17T20:32:25.153Z,4.18
2022-08-17T20:35:06.547Z,4.30
2022-08-17T20:37:44.780Z,3.88
2022-08-17T20:40:28.332Z,4.00
2022-08-17T20:42:59.822Z,3.72
2022-08-17T20:46:05.545Z,3.45
2022-08-17T20:48:39.663Z,3.95
2022-08-17T20:51:32.877Z,3.53
2022-08-17T20:54:23.244Z,4.03
2022-08-17T20:57:01.357Z,3.88
2022-08-17T21:00:13.799Z,3.55
2022-08-17T21:02:45.968Z,3.75
2022-08-17T21:05:39.019Z,3.90
2022-08-17T21:08:16.022Z,3.53
2022-08-17T21:10:46.851Z,3.17
2022-08-17T21:13:42.444Z,3.70
2022-08-17T21:16:29.500Z,3.78
2022-08-17T21:19:11.058Z,3.75
2022-08-17T21:21:47.951Z,3.58
2022-08-17T21:24:27.446Z,3.33
2022-08-17T21:27:05.616Z,3.92
2022-08-17T21:29:40.365Z,3.53
2022-08-17T21:32:24.214Z,3.85
2022-08-17T21:35:28.315Z,3.35
2022-08-17T21:37:59.378Z,3.13
2022-08-17T21:40:29.254Z,2.63
2022-08-17T21:43:01.670Z,3.15
2022-08-17T21:45:41.800Z,3.28
2022-08-17T21:48:19.553Z,2.97
2022-08-17T21:50:59.171Z,2.65
2022-08-17T21:53:35.377Z,3.22
2022-08-17T21:56:04.681Z,3.67
2022-08-17T21:58:39.448Z,3.63
2022-08-17T22:01:22.662Z,3.50
2022-08-17T22:04:01.805Z,3.50
2022-08-17T22:06:35.149Z,3.70
2022-08-17T22:09:12.337Z,3.67
2022-08-17T22:11:55.470Z,3.33
2022-08-17T22:14:27.202Z,4.05
2022-08-17T22:17:24.894Z,3.17
2022-08-17T22:19:56.891Z,3.63
2022-08-17T22:22:30.494Z,3.63
2022-08-17T22:25:03.387Z,3.42
2022-08-17T22:27:55.488Z,3.47
2022-08-17T22:30:33.620Z,3.67
2022-08-17T22:33:31.313Z,3.47
2022-08-17T22:36:29.014Z,3.53
2022-08-17T22:38:58.815Z,3.70
2022-08-17T22:41:44.526Z,3.72
2022-08-17T22:44:21.082Z,3.85
2022-08-17T22:46:57.503Z,3.92
2022-08-17T22:49:36.579Z,3.92
2022-08-17T22:52:09.797Z,3.67
2022-08-17T22:54:55.963Z,3.78
2022-08-17T22:57:48.561Z,3.60
2022-08-17T23:00:32.061Z,3.70
2022-08-17T23:03:13.936Z,3.70
2022-08-17T23:05:46.170Z,3.85
2022-08-17T23:08:22.166Z,3.50
2022-08-17T23:10:50.864Z,3.70
2022-08-17T23:13:21.305Z,4.00
2022-08-17T23:15:51.070Z,3.83
2022-08-17T23:18:19.695Z,3.88
2022-08-17T23:20:49.410Z,3.58
2022-08-17T23:23:23.602Z,3.80
2022-08-17T23:25:52.225Z,4.00
2022-08-17T23:28:21.599Z,3.92
2022-08-17T23:30:50.394Z,4.32
2022-08-17T23:33:21.620Z,3.63
2022-08-17T23:35:51.251Z,4.18
2022-08-17T23:38:19.394Z,3.83
2022-08-17T23:40:47.661Z,4.10
2022-08-17T23:43:25.284Z,4.00
2022-08-17T23:45:57.620Z,4.35
2022-08-17T23:48:27.812Z,4.13
2022-08-17T23:51:09.179Z,4.15
2022-08-17T23:53:38.379Z,4.32
2022-08-17T23:56:10.493Z,3.63
2022-08-17T23:58:39.739Z,3.78
